Time;durP1;ratioP1;P1;durP2;ratioP2;P2;SDS_P1;SDS_P2;PMS_P1;PMS_P2;Temp;Humidity;BMP_temperature;BMP_pressure;BME280_temperature;BME280_humidity;BME280_pressure;Samples;Min_cycle;Max_cycle;Signal;HPM_P1;HPM_P2
2022/10/16 00:02:00;;;;;;;17.00;11.37;;;;;;;10.26;93.83;101676.75;4938139;29;20182;-77
2022/10/16 00:04:25;;;;;;;13.93;9.97;;;;;;;10.23;94.23;101673.41;4954445;29;20042;-76
2022/10/16 00:06:51;;;;;;;15.07;10.10;;;;;;;10.19;93.88;101671.97;4955622;29;20624;-76
2022/10/16 00:09:16;;;;;;;15.53;10.83;;;;;;;10.21;93.73;101666.53;4955478;29;20042;-77
2022/10/16 00:11:42;;;;;;;14.13;10.90;;;;;;;10.22;93.84;101677.03;4938412;29;20030;-76
2022/10/16 00:14:12;;;;;;;13.57;9.60;;;;;;;10.13;93.87;101661.88;4955486;29;20031;-76
2022/10/16 00:16:38;;;;;;;12.73;10.07;;;;;;;10.15;94.26;101665.22;4955348;29;20086;-77
2022/10/16 00:19:04;;;;;;;15.20;10.47;;;;;;;10.13;94.17;101656.53;4955329;29;20035;-77
2022/10/16 00:21:31;;;;;;;13.40;9.93;;;;;;;10.12;94.36;101657.53;4955394;29;20082;-77
2022/10/16 00:24:15;;;;;;;16.10;9.77;;;;;;;10.16;93.99;101668.72;4955709;29;20052;-76
2022/10/16 00:26:41;;;;;;;17.13;9.60;;;;;;;10.14;93.75;101670.69;4955800;29;20027;-76
2022/10/16 00:29:09;;;;;;;13.40;10.10;;;;;;;10.10;94.54;101667.44;4938604;29;20047;-77
2022/10/16 00:31:34;;;;;;;12.25;10.18;;;;;;;10.11;94.40;101663.78;4954463;29;20032;-76
2022/10/16 00:34:01;;;;;;;13.43;9.57;;;;;;;10.07;94.50;101672.19;4954960;29;20114;-78
2022/10/16 00:36:26;;;;;;;16.13;10.50;;;;;;;10.03;94.36;101668.97;4954882;29;20098;-77
2022/10/16 00:38:54;;;;;;;17.20;10.07;;;;;;;9.97;95.08;101666.88;4954934;29;20533;-75
2022/10/16 00:41:22;;;;;;;14.33;9.90;;;;;;;9.96;95.07;101659.84;4954600;29;20498;-76
2022/10/16 00:43:53;;;;;;;14.93;10.35;;;;;;;9.97;94.90;101661.53;4954765;29;20031;-78
2022/10/16 00:46:28;;;;;;;13.03;9.57;;;;;;;9.99;94.81;101658.75;4954712;29;20439;-76
2022/10/16 00:49:03;;;;;;;15.67;10.73;;;;;;;10.05;94.83;101663.50;4954970;29;20027;-77
2022/10/16 00:51:33;;;;;;;13.83;10.30;;;;;;;10.03;94.60;101655.66;4954493;29;20539;-77
2022/10/16 00:54:02;;;;;;;18.07;10.13;;;;;;;10.02;94.60;101653.97;4954368;29;20065;-76
2022/10/16 00:56:27;;;;;;;11.90;10.30;;;;;;;9.97;94.66;101650.06;4954863;29;20027;-78
2022/10/16 00:58:53;;;;;;;13.90;9.03;;;;;;;9.96;94.83;101654.53;4954844;29;20493;-75
2022/10/16 01:01:19;;;;;;;16.83;10.60;;;;;;;9.79;94.70;101634.75;4954550;29;20027;-77
2022/10/16 01:03:45;;;;;;;16.67;9.63;;;;;;;9.65;95.10;101610.34;4954536;29;20027;-77
2022/10/16 01:06:19;;;;;;;13.80;9.70;;;;;;;9.84;95.31;101639.69;4954322;29;20046;-77
2022/10/16 01:08:51;;;;;;;15.00;9.53;;;;;;;9.89;95.11;101645.44;4954080;29;20038;-76
2022/10/16 01:11:31;;;;;;;10.97;9.17;;;;;;;9.85;95.20;101652.00;4954693;29;20464;-77
2022/10/16 01:14:04;;;;;;;13.10;9.60;;;;;;;9.83;95.19;101648.59;4954706;29;20034;-76
2022/10/16 01:16:43;;;;;;;17.60;10.00;;;;;;;9.82;95.58;101644.25;4954580;29;20034;-76
2022/10/16 01:19:14;;;;;;;13.47;9.47;;;;;;;9.78;95.46;101642.84;4954344;29;20035;-77
2022/10/16 01:21:44;;;;;;;28.03;11.00;;;;;;;9.75;95.53;101651.13;4958672;29;20039;-76
2022/10/16 01:24:54;;;;;;;13.47;9.57;;;;;;;9.77;95.45;101657.97;4976696;29;20051;-77
2022/10/16 01:27:28;;;;;;;19.67;10.53;;;;;;;9.74;95.72;101660.06;4944497;29;20067;-77
2022/10/16 01:30:01;;;;;;;13.83;10.13;;;;;;;9.72;95.76;101662.03;4934094;29;20464;-75
2022/10/16 01:32:48;;;;;;;16.03;9.77;;;;;;;9.71;95.85;101657.69;4944962;29;20066;-73
2022/10/16 01:35:21;;;;;;;13.60;9.53;;;;;;;9.72;96.01;101651.38;4954482;29;20079;-77
2022/10/16 01:37:58;;;;;;;12.97;9.57;;;;;;;9.79;95.57;101652.53;4954051;29;20460;-76
2022/10/16 01:40:27;;;;;;;16.87;10.00;;;;;;;9.81;95.53;101655.88;4954256;29;20031;-76
2022/10/16 01:42:56;;;;;;;;;;;;;;;9.87;95.16;101655.38;4954553;29;20023;-77
2022/10/16 01:45:21;;;;;;;13.07;8.98;;;;;;;9.87;95.04;101644.72;4955296;29;20072;-76
2022/10/16 01:47:49;;;;;;;13.43;9.97;;;;;;;9.90;94.77;101647.94;4953962;29;20479;-76
2022/10/16 01:50:17;;;;;;;14.13;10.10;;;;;;;9.92;94.85;101642.50;4953776;29;20039;-77
2022/10/16 01:52:47;;;;;;;17.63;10.15;;;;;;;9.93;95.22;101646.84;4954240;29;20027;-77
2022/10/16 01:55:16;;;;;;;13.07;9.90;;;;;;;9.87;95.05;101637.59;4953985;29;20471;-77
2022/10/16 01:57:47;;;;;;;15.85;10.70;;;;;;;9.82;95.27;101637.13;4954043;29;20459;-76
2022/10/16 02:00:16;;;;;;;17.80;10.80;;;;;;;9.76;95.49;101635.00;4953594;29;20490;-77
2022/10/16 02:02:46;;;;;;;14.70;10.53;;;;;;;9.73;95.71;101650.41;4956156;28;20056;-76
2022/10/16 02:05:40;;;;;;;16.13;10.80;;;;;;;9.68;95.89;101644.66;4957660;29;20121;-76
2022/10/16 02:08:06;;;;;;;18.20;11.07;;;;;;;9.39;96.73;101608.16;4952783;29;20066;-77
2022/10/16 02:10:32;;;;;;;15.27;11.33;;;;;;;9.60;96.75;101643.53;4940665;29;20066;-78
2022/10/16 02:13:06;;;;;;;16.43;11.03;;;;;;;9.57;96.48;101638.47;4957676;29;20031;-77
2022/10/16 02:15:51;;;;;;;15.30;10.67;;;;;;;9.57;96.31;101638.47;4943288;29;20031;-76
2022/10/16 02:18:17;;;;;;;12.03;10.17;;;;;;;9.55;96.78;101639.59;4957618;29;20430;-77
2022/10/16 02:20:57;;;;;;;15.07;10.70;;;;;;;9.47;96.89;101637.59;4957501;29;20033;-77
2022/10/16 02:23:51;;;;;;;13.20;10.27;;;;;;;9.35;97.47;101628.03;4957314;29;20086;-76
2022/10/16 02:26:24;;;;;;;16.03;11.87;;;;;;;9.38;97.37;101634.88;4957177;29;20030;-76
2022/10/16 02:28:57;;;;;;;14.03;10.23;;;;;;;9.23;97.17;101613.97;4957298;29;20027;-77
2022/10/16 02:31:27;;;;;;;16.23;10.53;;;;;;;9.22;97.38;101611.44;4957167;29;20039;-77
2022/10/16 02:33:58;;;;;;;17.40;11.30;;;;;;;9.24;97.17;101617.47;4957327;29;20126;-77
2022/10/16 02:36:24;;;;;;;19.53;11.33;;;;;;;8.98;97.46;101586.03;4957149;29;20047;-77
2022/10/16 02:38:51;;;;;;;13.57;10.27;;;;;;;9.21;97.13;101621.22;4957109;29;20059;-77
2022/10/16 02:41:16;;;;;;;13.17;9.67;;;;;;;9.23;97.60;101618.44;4939823;29;20118;-78
2022/10/16 02:43:42;;;;;;;15.90;10.77;;;;;;;9.20;97.40;101616.06;4956998;29;20374;-77
2022/10/16 02:46:07;;;;;;;14.70;10.67;;;;;;;9.15;98.05;101610.31;4956745;29;20444;-77
2022/10/16 02:48:33;;;;;;;12.33;9.60;;;;;;;9.13;97.67;101617.56;4956694;29;20031;-76
2022/10/16 02:50:58;;;;;;;14.83;10.27;;;;;;;9.07;98.11;101618.09;4956645;29;20035;-76
2022/10/16 02:53:24;;;;;;;17.17;10.70;;;;;;;8.98;98.93;101615.25;4957966;29;20063;-76
2022/10/16 02:55:49;;;;;;;13.50;10.03;;;;;;;8.99;98.94;101611.63;4958715;29;20051;-76
2022/10/16 02:58:15;;;;;;;19.00;11.53;;;;;;;9.02;98.51;101621.16;4957843;29;20475;-76
2022/10/16 03:00:41;;;;;;;16.30;10.97;;;;;;;9.06;98.59;101614.59;4957566;29;20034;-75
2022/10/16 03:03:07;;;;;;;19.70;11.70;;;;;;;9.11;98.77;101603.56;4940846;29;20037;-76
2022/10/16 03:05:32;;;;;;;17.50;11.20;;;;;;;9.18;98.26;101604.72;4957243;29;20038;-77
2022/10/16 03:08:00;;;;;;;17.83;11.40;;;;;;;9.24;98.22;101604.19;4957192;29;20037;-76
2022/10/16 03:10:25;;;;;;;15.03;10.77;;;;;;;9.31;97.56;101606.19;4956783;29;20055;-76
2022/10/16 03:12:51;;;;;;;18.30;10.33;;;;;;;9.32;96.89;101601.72;4956682;28;20074;-76
2022/10/16 03:15:16;;;;;;;18.03;9.93;;;;;;;9.22;97.36;101583.03;4956700;29;20459;-76
2022/10/16 03:17:43;;;;;;;15.70;10.10;;;;;;;9.31;97.30;101600.03;4956452;29;20031;-76
2022/10/16 03:20:09;;;;;;;16.13;10.37;;;;;;;9.29;97.13;101607.31;4956567;29;20058;-76
2022/10/16 03:22:34;;;;;;;13.30;9.50;;;;;;;9.29;97.02;101602.00;4956471;29;20042;-75
2022/10/16 03:25:00;;;;;;;13.33;10.37;;;;;;;9.29;97.31;101604.66;4956593;29;20027;-76
2022/10/16 03:27:26;;;;;;;14.73;10.10;;;;;;;9.28;97.46;101585.19;4939258;29;20038;-77
2022/10/16 03:29:51;;;;;;;14.07;10.20;;;;;;;9.31;97.06;101600.88;4956346;29;20055;-78
2022/10/16 03:32:20;;;;;;;15.60;10.30;;;;;;;9.28;97.11;101603.81;4955713;29;20456;-76
2022/10/16 03:34:47;;;;;;;15.32;10.27;;;;;;;9.12;97.42;101584.00;4956376;29;20033;-77
2022/10/16 03:37:12;;;;;;;15.00;10.07;;;;;;;9.20;97.83;101600.09;4956306;29;20498;-76
2022/10/16 03:39:38;;;;;;;12.70;10.23;;;;;;;9.18;97.94;101594.09;4956143;29;20028;-76
2022/10/16 03:42:03;;;;;;;16.47;9.77;;;;;;;9.19;97.83;101604.59;4938985;29;20027;-77
2022/10/16 03:45:03;;;;;;;16.17;10.53;;;;;;;9.24;98.03;101605.03;4938591;29;20074;-77
2022/10/16 03:47:36;;;;;;;14.50;10.10;;;;;;;9.21;97.78;101594.66;4921426;29;20115;-77
2022/10/16 03:50:10;;;;;;;12.37;9.57;;;;;;;8.98;97.50;101556.81;4922182;29;20066;-77
2022/10/16 03:53:06;;;;;;;13.93;10.07;;;;;;;8.91;97.74;101554.78;4921038;29;20538;-75
2022/10/16 03:55:50;;;;;;;18.40;10.50;;;;;;;8.93;97.85;101569.63;4939549;29;20170;-77
2022/10/16 04:04:54;;;;;;;16.67;9.87;;;;;;;8.95;98.79;101596.91;5625475;23;20146;-77
2022/10/16 04:07:20;;;;;;;16.50;11.07;;;;;;;8.87;98.47;101591.41;4883655;29;20636;-76
2022/10/16 04:09:49;;;;;;;17.67;10.40;;;;;;;8.82;98.97;101596.28;4899011;29;20047;-77
2022/10/16 04:12:14;;;;;;;13.80;11.10;;;;;;;8.71;99.41;101584.91;4883425;29;20548;-75
2022/10/16 04:14:40;;;;;;;16.90;11.07;;;;;;;8.55;99.38;101574.72;4883438;29;20074;-77
2022/10/16 04:17:09;;;;;;;15.13;10.93;;;;;;;8.66;100.00;101599.38;4899646;29;20060;-77
2022/10/16 04:19:35;;;;;;;15.97;11.13;;;;;;;8.40;100.00;101565.41;4883691;29;20396;-76
2022/10/16 04:22:00;;;;;;;19.07;12.07;;;;;;;8.47;100.00;101571.88;4899629;29;20036;-77
2022/10/16 04:24:26;;;;;;;18.60;12.03;;;;;;;8.30;100.00;101547.56;4882858;29;20040;-77
2022/10/16 04:26:58;;;;;;;16.23;11.50;;;;;;;8.41;100.00;101561.78;4899153;29;20127;-76
2022/10/16 04:32:16;;;;;;;19.27;11.90;;;;;;;8.33;100.00;101565.91;4899110;29;20040;-76
2022/10/16 04:35:04;;;;;;;20.63;12.07;;;;;;;8.08;100.00;101529.09;4883302;29;20564;-78
2022/10/16 04:37:29;;;;;;;20.00;10.90;;;;;;;8.23;100.00;101569.44;4883127;29;20065;-76
2022/10/16 04:40:04;;;;;;;16.20;11.63;;;;;;;8.18;100.00;101556.56;4883279;29;20170;-79
2022/10/16 04:42:30;;;;;;;20.47;11.73;;;;;;;8.21;100.00;101574.88;4914212;29;20084;-77
2022/10/16 04:44:55;;;;;;;17.90;12.07;;;;;;;8.08;100.00;101555.63;4883030;29;20034;-75
2022/10/16 04:47:21;;;;;;;22.20;11.93;;;;;;;8.24;100.00;101579.91;4898814;29;20035;-77
2022/10/16 04:49:56;;;;;;;19.50;12.00;;;;;;;8.14;100.00;101565.75;4899487;29;20777;-77
2022/10/16 04:52:26;;;;;;;16.17;10.63;;;;;;;8.09;100.00;101557.28;4899856;29;20067;-77
2022/10/16 04:54:51;;;;;;;19.07;12.70;;;;;;;8.02;100.00;101546.34;4900519;29;20028;-77
2022/10/16 04:57:24;;;;;;;15.50;11.20;;;;;;;8.08;100.00;101547.66;4906153;29;20392;-79
2022/10/16 05:00:07;;;;;;;16.37;12.17;;;;;;;8.03;100.00;101521.50;4920109;29;20028;-79
2022/10/16 05:02:38;;;;;;;18.60;11.37;;;;;;;8.16;100.00;101529.31;4906797;29;20070;-78
2022/10/16 05:05:34;;;;;;;;;;;;;;;;;;;;;
2022/10/16 05:09:12;;;;;;;19.40;11.03;;;;;;;8.29;100.00;101508.72;4915889;29;20421;-78
2022/10/16 05:19:16;;;;;;;14.43;10.77;;;;;;;8.33;99.87;101523.44;4843786;29;20077;-78
2022/10/16 05:22:17;;;;;;;16.27;10.63;;;;;;;8.36;100.00;101549.72;4901972;29;20024;-78
2022/10/16 05:24:43;;;;;;;17.90;10.90;;;;;;;8.13;99.92;101526.91;4874052;29;20150;-73
2022/10/16 05:27:10;;;;;;;17.63;10.73;;;;;;;8.32;100.00;101563.34;4908105;29;20129;-76
2022/10/16 05:29:36;;;;;;;14.37;11.10;;;;;;;8.37;100.00;101567.31;4879710;29;20043;-76
2022/10/16 05:32:01;;;;;;;20.07;10.50;;;;;;;8.40;100.00;101555.63;4895531;29;20037;-76
2022/10/16 05:34:36;;;;;;;14.03;10.73;;;;;;;8.33;100.00;101534.06;4895746;29;20465;-78
2022/10/16 05:37:01;;;;;;;14.40;10.67;;;;;;;8.40;99.90;101547.69;4896750;29;20085;-77
2022/10/16 05:39:30;;;;;;;15.70;11.20;;;;;;;8.42;99.78;101547.53;4899260;29;20029;-77
2022/10/16 05:41:55;;;;;;;14.10;10.87;;;;;;;8.54;99.48;101551.81;4903346;29;20485;-77
2022/10/16 05:44:20;;;;;;;16.97;10.07;;;;;;;8.65;99.63;101549.06;4920611;29;20028;-78
2022/10/16 05:46:47;;;;;;;17.27;11.57;;;;;;;8.79;98.61;101551.41;4921618;29;20036;-77
2022/10/16 05:49:12;;;;;;;14.80;10.70;;;;;;;8.86;97.58;101544.56;4921547;29;20047;-76
2022/10/16 05:51:38;;;;;;;13.40;9.73;;;;;;;8.93;96.94;101548.38;4920792;29;20473;-78
2022/10/16 05:54:03;;;;;;;19.43;11.10;;;;;;;8.87;96.87;101538.28;4920755;29;20056;-72
2022/10/16 05:56:29;;;;;;;16.33;9.80;;;;;;;8.89;96.84;101533.69;4920138;29;20052;-77
2022/10/16 05:58:55;;;;;;;14.50;9.90;;;;;;;8.86;96.98;101531.28;4920658;29;20413;-77
2022/10/16 06:01:23;;;;;;;14.03;10.00;;;;;;;8.85;96.13;101542.91;4920455;29;20113;-77
2022/10/16 06:03:58;;;;;;;17.50;11.77;;;;;;;8.65;96.77;101506.56;4920138;29;20050;-77
2022/10/16 06:06:28;;;;;;;14.03;11.00;;;;;;;8.95;96.81;101535.81;4920443;29;20088;-75
2022/10/16 06:08:55;;;;;;;15.97;9.87;;;;;;;9.00;95.95;101525.66;4919654;29;20067;-75
2022/10/16 06:11:23;;;;;;;13.60;10.03;;;;;;;9.14;95.42;101544.84;4920013;29;20036;-75
2022/10/16 06:13:51;;;;;;;19.50;10.18;;;;;;;9.10;95.30;101546.09;4923838;29;20467;-76
2022/10/16 06:16:16;;;;;;;13.67;9.47;;;;;;;9.10;95.86;101554.91;4927034;29;20020;-75
2022/10/16 06:18:42;;;;;;;17.70;10.20;;;;;;;9.13;95.55;101559.09;4923892;29;20032;-75
2022/10/16 06:21:10;;;;;;;16.77;9.43;;;;;;;9.18;95.19;101562.19;4919926;29;20110;-73
2022/10/16 06:23:36;;;;;;;18.65;10.25;;;;;;;9.10;95.41;101540.78;4919615;29;20040;-72
2022/10/16 06:26:06;;;;;;;14.83;9.93;;;;;;;9.08;95.46;101542.72;4919849;29;20040;-72
2022/10/16 06:28:32;;;;;;;22.30;11.33;;;;;;;9.09;95.82;101534.63;4919939;29;20032;-72
2022/10/16 06:31:02;;;;;;;15.63;10.30;;;;;;;9.14;95.63;101539.53;4919389;29;20024;-74
2022/10/16 06:33:28;;;;;;;13.67;9.23;;;;;;;9.16;95.38;101538.41;4919374;29;20028;-74
2022/10/16 06:35:59;;;;;;;16.47;10.63;;;;;;;9.20;95.05;101536.31;4919013;29;20035;-73
2022/10/16 06:38:24;;;;;;;22.63;10.97;;;;;;;9.00;95.08;101507.03;4919321;29;20052;-76
2022/10/16 06:40:50;;;;;;;14.17;9.87;;;;;;;9.00;96.01;101506.19;4919593;29;20371;-72
2022/10/16 06:43:16;;;;;;;14.27;9.33;;;;;;;9.05;95.86;101517.25;4919640;29;20104;-81
2022/10/16 06:45:41;;;;;;;16.33;10.30;;;;;;;9.15;94.94;101525.25;4901968;29;20476;-71
2022/10/16 06:48:07;;;;;;;12.60;9.23;;;;;;;9.10;95.15;101516.84;4918965;29;20036;-74
2022/10/16 06:50:32;;;;;;;13.13;10.40;;;;;;;9.12;95.66;101539.66;4919579;29;20176;-74
2022/10/16 06:52:58;;;;;;;16.63;10.80;;;;;;;9.06;95.63;101521.59;4920827;29;20035;-74
2022/10/16 06:55:24;;;;;;;19.03;10.83;;;;;;;9.13;95.92;101527.22;4918749;29;20491;-74
2022/10/16 06:57:49;;;;;;;15.17;10.10;;;;;;;9.14;95.46;101528.88;4918602;29;20063;-77
2022/10/16 07:00:15;;;;;;;22.23;10.00;;;;;;;9.20;95.40;101520.38;4919495;29;20036;-76
2022/10/16 07:02:41;;;;;;;16.40;9.67;;;;;;;9.18;95.12;101525.81;4918761;29;20032;-75
2022/10/16 07:05:07;;;;;;;16.33;9.37;;;;;;;9.19;95.32;101518.69;4918190;29;20465;-74
2022/10/16 07:07:35;;;;;;;15.00;9.90;;;;;;;9.19;95.48;101508.06;4919084;29;20417;-74
2022/10/16 07:10:01;;;;;;;19.88;10.43;;;;;;;9.18;95.15;101498.41;4919076;29;20056;-75
2022/10/16 07:12:26;;;;;;;15.33;9.93;;;;;;;9.19;94.43;101495.63;4919034;29;20028;-76
2022/10/16 07:14:52;;;;;;;16.23;10.30;;;;;;;9.11;95.78;101497.28;4917915;29;20104;-77
2022/10/16 07:17:17;;;;;;;13.43;9.53;;;;;;;8.96;95.34;101487.03;4917165;29;20036;-77
2022/10/16 07:19:43;;;;;;;15.47;9.90;;;;;;;9.16;95.37;101501.19;4919672;29;20028;-80
2022/10/16 07:22:09;;;;;;;18.57;10.13;;;;;;;9.15;95.31;101504.84;4918853;29;20384;-78
2022/10/16 07:24:34;;;;;;;17.10;10.37;;;;;;;9.29;95.32;101511.59;4918271;29;20169;-71
2022/10/16 07:26:59;;;;;;;17.60;10.60;;;;;;;9.41;95.36;101509.66;4900300;29;20138;-74
2022/10/16 07:29:25;;;;;;;16.73;9.43;;;;;;;9.50;93.83;101501.69;4918142;29;20035;-72
2022/10/16 07:31:51;;;;;;;21.33;11.63;;;;;;;9.58;93.63;101501.03;4917502;29;20035;-75
2022/10/16 07:34:18;;;;;;;11.33;9.17;;;;;;;9.70;93.18;101507.06;4917118;29;20109;-75
2022/10/16 07:36:43;;;;;;;14.67;10.70;;;;;;;9.80;92.92;101510.56;4917672;29;20388;-75
2022/10/16 07:39:09;;;;;;;21.10;12.20;;;;;;;9.80;91.99;101500.75;4917892;29;20020;-77
2022/10/16 07:41:36;;;;;;;17.50;10.77;;;;;;;9.90;92.20;101520.25;4917913;29;20080;-75
2022/10/16 07:44:17;;;;;;;18.87;9.87;;;;;;;9.69;92.45;101498.22;4916885;29;20040;-75
2022/10/16 07:46:46;;;;;;;11.73;8.73;;;;;;;9.65;92.64;101506.63;4899540;29;20036;-77
2022/10/16 07:49:12;;;;;;;15.50;9.07;;;;;;;9.61;93.31;101504.25;4917817;29;20019;-75
2022/10/16 07:51:39;;;;;;;20.17;11.63;;;;;;;9.54;93.38;101500.47;4918600;29;20535;-79
2022/10/16 07:54:04;;;;;;;12.93;9.53;;;;;;;9.55;93.33;101504.81;4919342;29;20500;-74
2022/10/16 07:56:30;;;;;;;18.53;10.27;;;;;;;9.64;93.45;101495.16;4918015;29;20040;-79
2022/10/16 07:59:02;;;;;;;22.10;12.27;;;;;;;9.75;92.56;101491.50;4915902;29;20439;-76
2022/10/16 08:01:27;;;;;;;16.27;10.27;;;;;;;9.78;92.89;101496.53;4915124;29;20039;-77
2022/10/16 08:03:56;;;;;;;17.03;11.30;;;;;;;9.85;92.70;101495.03;4900924;29;20124;-78
2022/10/16 08:14:34;;;;;;;16.40;10.03;;;;;;;9.93;91.94;101492.50;4904851;29;20096;-77
2022/10/16 08:24:53;;;;;;;21.07;11.97;;;;;;;9.59;91.63;101434.41;4913659;29;20159;-78
2022/10/16 08:28:09;;;;;;;40.80;18.97;;;;;;;9.94;91.96;101507.50;4841591;29;20664;-78
2022/10/16 08:30:51;;;;;;;39.00;16.43;;;;;;;9.67;92.04;101446.16;4914634;29;20108;-81
2022/10/16 08:33:47;;;;;;;32.77;15.93;;;;;;;9.92;91.70;101475.69;4915785;29;20032;-77
2022/10/16 08:36:53;;;;;;;30.00;14.17;;;;;;;10.16;91.22;101493.91;4882225;29;20062;-77
2022/10/16 08:39:19;;;;;;;31.90;18.73;;;;;;;9.80;90.91;101430.75;4884058;29;20592;-75
2022/10/16 08:42:16;;;;;;;26.57;14.47;;;;;;;10.02;91.17;101472.19;4923915;29;20043;-76
2022/10/16 08:44:56;;;;;;;24.97;13.57;;;;;;;10.17;91.09;101487.59;4935338;29;20016;-74
2022/10/16 08:47:34;;;;;;;36.23;13.90;;;;;;;10.29;90.74;101463.50;4921541;29;20101;-75
2022/10/16 08:50:12;;;;;;;19.07;11.77;;;;;;;10.41;89.56;101459.69;4917150;29;20134;-73
2022/10/16 08:52:59;;;;;;;21.50;12.87;;;;;;;10.67;89.41;101460.69;4899251;29;20035;-75
2022/10/16 08:56:03;;;;;;;25.90;12.90;;;;;;;10.65;88.72;101430.69;4862065;29;20048;-77
2022/10/16 09:01:41;;;;;;;22.50;11.60;;;;;;;10.66;88.44;101463.50;4852198;29;20493;-75
2022/10/16 09:04:25;;;;;;;29.07;14.80;;;;;;;10.63;88.33;101456.66;4877073;29;20466;-75
2022/10/16 09:07:09;;;;;;;15.93;10.37;;;;;;;10.66;88.40;101466.19;4894187;29;20056;-76
2022/10/16 09:10:01;;;;;;;17.43;9.67;;;;;;;10.52;89.23;101459.50;4915877;29;20043;-76
2022/10/16 09:12:40;;;;;;;14.27;9.47;;;;;;;10.36;89.85;101451.28;4916854;29;20031;-73
2022/10/16 09:15:17;;;;;;;20.97;9.47;;;;;;;10.43;89.90;101465.72;4916699;29;20380;-74
2022/10/16 09:17:55;;;;;;;18.17;12.05;;;;;;;10.43;89.66;101455.06;4917054;29;20043;-75
2022/10/16 09:20:33;;;;;;;17.07;10.73;;;;;;;10.42;90.43;101448.06;4917258;29;20032;-75
2022/10/16 09:23:04;;;;;;;33.08;15.45;;;;;;;10.37;90.30;101455.63;4916956;29;20431;-76
2022/10/16 09:25:32;;;;;;;23.80;13.90;;;;;;;10.41;90.26;101451.69;4916994;29;20090;-77
2022/10/16 09:28:01;;;;;;;19.52;11.23;;;;;;;10.50;90.25;101459.66;4916191;29;20471;-76
2022/10/16 09:31:04;;;;;;;22.15;10.20;;;;;;;10.58;89.89;101453.59;4915243;29;20084;-77
2022/10/16 09:33:58;;;;;;;16.13;10.43;;;;;;;10.56;89.38;101436.91;4915559;29;20138;-77
2022/10/16 09:44:18;;;;;;;14.60;10.13;;;;;;;10.67;88.66;101463.38;4903377;29;20135;-77
2022/10/16 09:47:17;;;;;;;12.87;9.80;;;;;;;10.61;88.49;101433.81;4915979;29;20055;-75
2022/10/16 09:50:12;;;;;;;12.60;9.30;;;;;;;10.50;88.45;101405.56;4872013;29;20092;-78
2022/10/16 09:52:41;;;;;;;14.33;9.33;;;;;;;10.45;88.34;101394.50;4879481;29;20032;-76
2022/10/16 09:56:00;;;;;;;14.13;9.33;;;;;;;10.79;87.96;101443.56;4902751;29;20029;-74
2022/10/16 09:58:53;;;;;;;17.20;10.57;;;;;;;10.79;88.28;101435.56;4899034;29;20028;-79
2022/10/16 10:05:52;;;;;;;15.17;8.40;;;;;;;10.81;88.14;101427.41;4894808;29;20160;-82
2022/10/16 10:08:50;;;;;;;13.13;9.30;;;;;;;10.52;88.28;101412.41;4877285;29;20048;-79
2022/10/16 10:12:11;;;;;;;12.55;9.52;;;;;;;10.67;88.34;101460.69;4864012;29;20079;-78
2022/10/16 10:14:40;;;;;;;16.00;9.57;;;;;;;10.46;88.85;101449.44;4859134;29;20363;-73
2022/10/16 10:17:51;;;;;;;15.00;8.50;;;;;;;10.44;89.39;101446.09;4876582;29;20037;-74
2022/10/16 10:23:57;;;;;;;15.50;8.97;;;;;;;10.51;89.59;101456.00;4821620;29;20045;-75
2022/10/16 10:30:18;;;;;;;13.53;8.90;;;;;;;10.55;90.02;101460.06;4809682;29;20396;-73
2022/10/16 10:33:20;;;;;;;15.77;9.37;;;;;;;10.60;89.96;101464.94;4840764;29;20127;-75
2022/10/16 10:36:09;;;;;;;13.10;9.03;;;;;;;10.68;90.19;101483.69;4852649;29;20576;-75
2022/10/16 10:38:47;;;;;;;11.23;8.70;;;;;;;10.65;90.24;101469.81;4860468;29;20037;-74
2022/10/16 10:41:41;;;;;;;;;;;;;;;10.68;90.03;101457.03;4860932;29;20042;-75
2022/10/16 10:44:16;;;;;;;14.90;9.17;;;;;;;10.66;90.65;101455.53;4875533;29;19912;-73
2022/10/16 10:46:51;;;;;;;15.07;8.60;;;;;;;10.70;90.23;101447.13;4861275;29;20458;-73
2022/10/16 10:49:17;;;;;;;15.17;7.43;;;;;;;10.71;90.29;101447.94;4860778;29;20079;-73
2022/10/16 10:52:11;;;;;;;17.87;8.73;;;;;;;10.78;90.18;101451.69;4880077;29;20063;-75
2022/10/16 10:55:11;;;;;;;14.17;8.67;;;;;;;10.57;90.16;101429.78;4886527;29;20085;-73
2022/10/16 10:58:15;;;;;;;15.70;8.30;;;;;;;10.64;90.35;101457.50;4865092;29;20027;-72
2022/10/16 11:01:13;;;;;;;11.33;8.10;;;;;;;10.52;90.32;101451.53;4881627;29;20036;-72
2022/10/16 11:03:41;;;;;;;11.25;7.82;;;;;;;10.47;90.65;101453.78;4900740;29;20036;-74
2022/10/16 11:06:27;;;;;;;13.40;8.35;;;;;;;10.44;90.82;101441.59;4906452;29;20505;-73
2022/10/16 11:09:43;;;;;;;13.77;9.57;;;;;;;10.47;91.17;101440.47;4918483;29;20048;-76
2022/10/16 11:12:31;;;;;;;10.77;7.87;;;;;;;10.43;91.14;101439.09;4894430;29;20041;-74
2022/10/16 11:15:19;;;;;;;16.77;9.10;;;;;;;10.45;91.29;101442.44;4912755;29;20020;-73
2022/10/16 11:18:03;;;;;;;11.57;7.27;;;;;;;10.29;91.49;101423.56;4914974;29;20039;-74
2022/10/16 11:20:41;;;;;;;10.67;7.70;;;;;;;10.38;91.71;101433.31;4899766;29;20044;-73
2022/10/16 11:23:11;;;;;;;;;;;;;;;10.40;92.00;101436.69;4902170;29;20036;-76
2022/10/16 11:25:39;;;;;;;12.33;7.63;;;;;;;10.33;92.09;101438.25;4918936;29;19915;-75
2022/10/16 11:28:55;;;;;;;16.42;10.80;;;;;;;10.34;92.58;101446.09;4909950;29;20032;-75
2022/10/16 11:31:43;;;;;;;15.80;9.20;;;;;;;10.21;93.36;101457.06;4876058;29;20044;-74
2022/10/16 11:34:45;;;;;;;15.57;8.43;;;;;;;10.08;94.02;101434.34;4917608;29;20488;-77
2022/10/16 11:37:25;;;;;;;17.27;10.93;;;;;;;10.12;93.83;101451.72;4918606;29;20046;-76
2022/10/16 11:39:57;;;;;;;16.30;10.93;;;;;;;9.88;94.55;101433.56;4902610;29;20036;-75
2022/10/16 11:42:30;;;;;;;12.03;9.60;;;;;;;10.03;95.05;101464.06;4919872;29;20032;-74
2022/10/16 11:45:22;;;;;;;13.47;8.13;;;;;;;10.01;95.42;101449.22;4918176;29;20028;-76
2022/10/16 11:48:02;;;;;;;11.40;8.07;;;;;;;9.97;95.87;101451.31;4920400;29;20032;-73
2022/10/16 11:50:52;;;;;;;11.87;8.87;;;;;;;9.96;95.98;101462.94;4922197;29;20028;-73
2022/10/16 11:53:40;;;;;;;11.07;8.03;;;;;;;9.92;96.29;101462.41;4922946;29;20039;-75
2022/10/16 11:56:06;;;;;;;18.87;9.97;;;;;;;9.91;96.78;101449.25;4920668;29;20076;-71
2022/10/16 11:59:18;;;;;;;12.43;8.53;;;;;;;9.90;96.54;101452.88;4921199;29;20032;-77
2022/10/16 12:02:07;;;;;;;9.87;8.53;;;;;;;9.94;96.95;101459.59;4905923;29;20456;-73
2022/10/16 12:05:11;;;;;;;10.50;8.13;;;;;;;9.90;97.25;101447.56;4917517;29;20425;-72
2022/10/16 12:07:50;;;;;;;10.77;8.10;;;;;;;9.92;97.93;101450.91;4917282;29;20489;-77
2022/10/16 12:10:28;;;;;;;17.30;10.47;;;;;;;9.91;97.76;101444.75;4917707;29;20096;-73
2022/10/16 12:12:54;;;;;;;11.33;8.50;;;;;;;9.92;97.98;101449.09;4917140;29;20076;-74
2022/10/16 12:15:36;;;;;;;10.90;8.13;;;;;;;9.86;98.51;101438.19;4918030;29;20035;-75
2022/10/16 12:18:02;;;;;;;9.80;8.10;;;;;;;9.89;98.49;101444.06;4886198;29;20038;-75
2022/10/16 12:20:30;;;;;;;12.23;9.30;;;;;;;9.87;98.28;101447.84;4919179;29;20039;-73
2022/10/16 12:23:05;;;;;;;12.88;8.98;;;;;;;9.85;98.54;101434.69;4920081;29;20032;-75
2022/10/16 12:25:37;;;;;;;9.57;7.47;;;;;;;9.89;98.74;101441.41;4940119;29;20047;-74
2022/10/16 12:28:15;;;;;;;16.77;8.77;;;;;;;9.89;98.75;101445.88;4938611;29;20040;-74
2022/10/16 12:30:42;;;;;;;10.80;8.10;;;;;;;9.86;98.42;101439.03;4937547;29;20046;-76
2022/10/16 12:33:37;;;;;;;11.63;7.97;;;;;;;9.96;98.79;101436.34;4930862;29;20924;-74
2022/10/16 12:36:14;;;;;;;12.73;8.53;;;;;;;9.98;98.43;101429.06;4899375;29;20071;-75
2022/10/16 12:39:11;;;;;;;15.20;10.00;;;;;;;10.05;98.18;101414.19;4900206;29;20054;-73
2022/10/16 12:41:39;;;;;;;12.33;8.97;;;;;;;10.02;98.23;101409.16;4899058;29;20063;-75
2022/10/16 12:44:23;;;;;;;14.10;8.67;;;;;;;9.97;98.80;101400.75;4928128;29;20024;-74
2022/10/16 12:46:50;;;;;;;13.87;8.90;;;;;;;9.93;99.12;101404.69;4937086;29;20043;-72
2022/10/16 12:49:28;;;;;;;14.03;9.50;;;;;;;9.94;99.86;101409.03;4936626;29;20045;-72